Time;durP1;ratioP1;P1;durP2;ratioP2;P2;SDS_P1;SDS_P2;PMS_P1;PMS_P2;Temp;Humidity;BMP_temperature;BMP_pressure;BME280_temperature;BME280_humidity;BME280_pressure;Samples;Min_cycle;Max_cycle;Signal;HPM_P1;HPM_P2
2022/09/02 00:01:30;;;;;;;0.30;0.22;;;25.40;40.00;24.50;101538.00;;;;5091914;28;20036;-66
2022/09/02 00:04:24;;;;;;;1.55;0.10;;;25.30;40.00;24.50;101546.00;;;;5105965;28;20459;-66
2022/09/02 00:07:10;;;;;;;0.38;0.22;;;25.30;40.00;24.50;101546.00;;;;5092732;28;20041;-66
2022/09/02 00:09:59;;;;;;;0.98;0.30;;;25.30;40.00;24.50;101547.00;;;;5095248;28;20036;-66
2022/09/02 00:12:45;;;;;;;0.30;0.22;;;25.30;40.00;24.50;101545.00;;;;5108077;27;20476;-66
2022/09/02 00:15:32;;;;;;;0.10;0.10;;;25.30;40.00;24.50;101539.00;;;;5109114;27;20042;-66
2022/09/02 00:18:19;;;;;;;0.63;0.30;;;25.30;40.00;24.40;101532.00;;;;5074650;28;20114;-66
2022/09/02 00:21:05;;;;;;;0.30;0.30;;;25.30;40.00;24.50;101529.00;;;;5092502;28;20066;-66
2022/09/02 00:23:51;;;;;;;2.22;0.40;;;25.30;40.00;24.40;101524.00;;;;5106674;28;20043;-66
2022/09/02 00:26:38;;;;;;;1.48;0.40;;;25.30;40.00;24.40;101525.00;;;;5076470;28;20043;-66
2022/09/02 00:29:25;;;;;;;0.52;0.30;;;25.30;40.00;24.40;101521.00;;;;5103936;27;20114;-66
2022/09/02 00:32:11;;;;;;;1.48;0.30;;;25.30;40.00;24.40;101521.00;;;;5097230;27;20035;-66
2022/09/02 00:34:57;;;;;;;0.85;0.40;;;25.20;39.90;24.40;101522.00;;;;5090185;27;20036;-66
2022/09/02 00:37:44;;;;;;;0.95;0.30;;;25.20;40.00;24.40;101518.00;;;;5105573;27;20050;-66
2022/09/02 00:40:30;;;;;;;0.50;0.30;;;25.20;40.00;24.40;101509.00;;;;5100040;27;20474;-66
2022/09/02 00:43:48;;;;;;;0.50;0.20;;;25.20;40.00;24.40;101517.00;;;;5088225;28;20044;-66
2022/09/02 00:46:34;;;;;;;0.88;0.30;;;25.20;40.00;24.40;101522.00;;;;5088215;27;20286;-66
2022/09/02 00:49:24;;;;;;;0.60;0.45;;;25.20;40.00;24.40;101516.00;;;;5101831;27;20060;-66
2022/09/02 00:52:22;;;;;;;0.47;0.28;;;25.20;40.00;24.30;101517.00;;;;5094994;27;20089;-66
2022/09/02 00:55:45;;;;;;;;;;;25.20;40.00;24.30;101519.00;;;;5084844;27;20043;-66
2022/09/02 00:58:32;;;;;;;0.98;0.22;;;25.20;40.00;24.30;101519.00;;;;5082437;27;19918;-66
2022/09/02 01:01:18;;;;;;;0.40;0.20;;;25.20;39.90;24.30;101512.00;;;;5085646;27;20068;-66
2022/09/02 01:04:04;;;;;;;0.68;0.30;;;25.20;40.00;24.30;101508.00;;;;5094641;28;20369;-66
2022/09/02 01:06:51;;;;;;;0.57;0.30;;;25.20;39.90;24.30;101508.00;;;;5088482;28;20036;-66
2022/09/02 01:09:38;;;;;;;0.85;0.20;;;25.10;39.90;24.30;101508.00;;;;5096107;27;20481;-66
2022/09/02 01:12:26;;;;;;;0.77;0.30;;;25.10;40.00;24.30;101508.00;;;;5114077;27;20035;-66
2022/09/02 01:15:13;;;;;;;2.60;0.38;;;25.10;40.00;24.30;101511.00;;;;5088164;27;20382;-66
2022/09/02 01:17:59;;;;;;;0.93;0.20;;;25.10;40.00;24.30;101510.00;;;;5088915;27;20584;-66
2022/09/02 01:20:45;;;;;;;0.73;0.50;;;25.10;40.00;24.30;101504.00;;;;5093914;27;20039;-66
2022/09/02 01:23:31;;;;;;;0.30;0.30;;;25.10;40.00;24.30;101497.00;;;;5088856;27;20035;-66
2022/09/02 01:26:17;;;;;;;0.30;0.20;;;25.10;40.00;24.30;101502.00;;;;5074359;28;20044;-66
2022/09/02 01:29:04;;;;;;;0.52;0.40;;;25.10;40.00;24.30;101503.00;;;;5103064;28;20036;-66
2022/09/02 01:31:50;;;;;;;0.95;0.30;;;25.10;40.00;24.30;101501.00;;;;5101290;28;20039;-66
2022/09/02 01:34:36;;;;;;;0.20;0.20;;;25.00;39.90;24.30;101500.00;;;;5103803;28;20032;-66
2022/09/02 01:37:22;;;;;;;0.30;0.20;;;25.10;40.00;24.30;101503.00;;;;5091469;27;20088;-66
2022/09/02 01:40:11;;;;;;;1.38;0.30;;;25.10;40.00;24.30;101496.00;;;;5094513;27;20067;-66
2022/09/02 01:43:08;;;;;;;1.08;0.40;;;25.10;40.40;24.30;101500.00;;;;5098069;27;20114;-66
2022/09/02 01:45:56;;;;;;;0.80;0.40;;;25.20;40.00;24.30;101497.00;;;;5101555;27;20036;-66
2022/09/02 01:48:42;;;;;;;0.55;0.25;;;25.10;40.00;24.30;101489.00;;;;5110174;27;20396;-66
2022/09/02 01:51:28;;;;;;;0.82;0.20;;;25.10;39.90;24.30;101493.00;;;;5102937;27;20089;-66
2022/09/02 01:54:14;;;;;;;0.15;0.10;;;25.10;39.90;24.40;101488.00;;;;5092700;28;20044;-66
2022/09/02 01:57:00;;;;;;;0.80;0.30;;;25.10;39.90;24.30;101491.00;;;;5103529;27;20035;-66
2022/09/02 01:59:46;;;;;;;0.88;0.30;;;25.10;39.90;24.30;101488.00;;;;5106766;27;20040;-66
2022/09/02 02:02:33;;;;;;;0.20;0.20;;;25.20;40.00;24.30;101483.00;;;;5101349;28;20480;-66
2022/09/02 02:05:19;;;;;;;2.30;0.20;;;25.20;40.00;24.30;101484.00;;;;5104962;28;20075;-66
2022/09/02 02:08:05;;;;;;;0.68;0.30;;;25.20;40.00;24.30;101480.00;;;;5101223;28;20286;-66
2022/09/02 02:10:51;;;;;;;0.50;0.30;;;25.10;39.80;24.30;101479.00;;;;5098214;28;20032;-66
2022/09/02 02:13:37;;;;;;;2.13;0.40;;;25.10;39.80;24.30;101478.00;;;;5101714;28;20032;-66
2022/09/02 02:16:23;;;;;;;0.47;0.20;;;25.20;40.70;24.30;101478.00;;;;5099038;28;20035;-66
2022/09/02 02:19:09;;;;;;;0.22;0.10;;;25.10;39.90;24.30;101480.00;;;;5100920;28;20039;-66
2022/09/02 02:21:56;;;;;;;0.88;0.38;;;25.10;39.90;24.30;101469.00;;;;5102746;27;20042;-66
2022/09/02 02:24:42;;;;;;;0.30;0.25;;;25.10;39.90;24.30;101468.00;;;;5096788;27;20546;-66
2022/09/02 02:27:28;;;;;;;0.95;0.20;;;25.10;39.90;24.30;101467.00;;;;5104850;27;20032;-66
2022/09/02 02:30:14;;;;;;;0.20;0.20;;;25.10;39.90;24.30;101474.00;;;;5110293;27;20591;-66
2022/09/02 02:33:00;;;;;;;0.52;0.25;;;25.10;40.00;24.30;101474.00;;;;5101090;28;20044;-66
2022/09/02 02:35:46;;;;;;;1.02;0.22;;;25.10;39.90;24.30;101464.00;;;;5100345;27;20416;-66
2022/09/02 02:38:34;;;;;;;0.30;0.20;;;25.10;39.90;24.30;101462.00;;;;5101923;28;20085;-66
2022/09/02 02:41:20;;;;;;;;;;;25.10;39.90;24.30;101463.00;;;;5099811;28;20046;-66
2022/09/02 02:44:06;;;;;;;0.60;0.20;;;25.10;40.00;24.20;101463.00;;;;5094464;28;19911;-66
2022/09/02 02:46:53;;;;;;;0.60;0.22;;;25.20;40.00;24.30;101459.00;;;;5103083;27;20420;-66
2022/09/02 02:49:40;;;;;;;0.30;0.20;;;25.10;39.90;24.30;101450.00;;;;5101449;28;20036;-66
2022/09/02 02:52:26;;;;;;;0.30;0.20;;;25.10;39.90;24.20;101450.00;;;;5077466;28;20024;-66
2022/09/02 02:55:12;;;;;;;0.50;0.25;;;25.00;39.80;24.20;101452.00;;;;5101848;28;20558;-66
2022/09/02 02:57:59;;;;;;;1.65;0.30;;;25.10;39.90;24.20;101452.00;;;;5077208;28;20164;-66
2022/09/02 03:00:45;;;;;;;1.75;0.30;;;25.00;39.90;24.20;101458.00;;;;5092057;28;20500;-66
2022/09/02 03:03:31;;;;;;;0.85;0.30;;;25.00;40.00;24.20;101458.00;;;;5100894;28;20122;-66
2022/09/02 03:06:17;;;;;;;0.20;0.20;;;25.10;40.00;24.20;101450.00;;;;5106279;28;20036;-66
2022/09/02 03:09:04;;;;;;;1.35;0.30;;;25.00;40.00;24.20;101461.00;;;;5102894;28;20040;-66
2022/09/02 03:11:50;;;;;;;2.50;0.43;;;25.00;40.00;24.20;101448.00;;;;5087478;28;20035;-66
2022/09/02 03:14:36;;;;;;;0.52;0.25;;;25.10;40.10;24.20;101453.00;;;;5100842;28;20039;-66
2022/09/02 03:17:22;;;;;;;1.23;0.30;;;25.00;40.00;24.20;101452.00;;;;5098075;28;20043;-66
2022/09/02 03:20:09;;;;;;;0.73;0.35;;;25.10;40.10;24.20;101452.00;;;;5101487;28;20036;-66
2022/09/02 03:22:56;;;;;;;0.47;0.40;;;25.00;40.00;24.20;101448.00;;;;5092663;28;20130;-66
2022/09/02 03:25:43;;;;;;;0.63;0.20;;;25.00;40.00;24.20;101446.00;;;;5092342;28;20096;-66
2022/09/02 03:28:31;;;;;;;0.32;0.32;;;25.00;40.00;24.20;101454.00;;;;5097230;28;20084;-66
2022/09/02 03:31:19;;;;;;;1.77;0.40;;;25.00;40.00;24.20;101449.00;;;;5101877;28;20040;-66
2022/09/02 03:34:06;;;;;;;0.73;0.38;;;25.00;40.00;24.20;101448.00;;;;5094948;28;20123;-66
2022/09/02 03:36:52;;;;;;;0.17;0.17;;;25.00;40.00;24.20;101440.00;;;;5121974;28;20399;-66
2022/09/02 03:39:39;;;;;;;0.20;0.20;;;25.00;40.00;24.20;101434.00;;;;5114181;28;20043;-66
2022/09/02 03:42:25;;;;;;;0.95;0.22;;;25.00;40.00;24.20;101436.00;;;;5106744;28;20078;-66
2022/09/02 03:45:13;;;;;;;0.20;0.13;;;25.00;39.90;24.20;101439.00;;;;5107736;27;20048;-67
2022/09/02 03:47:59;;;;;;;0.35;0.30;;;25.00;39.90;24.20;101440.00;;;;5117907;27;20035;-66
2022/09/02 03:50:46;;;;;;;0.30;0.30;;;24.90;39.80;24.20;101430.00;;;;5110267;27;20039;-66
2022/09/02 03:53:32;;;;;;;0.40;0.22;;;24.90;39.90;24.20;101427.00;;;;5112237;27;20059;-66
2022/09/02 03:56:19;;;;;;;0.60;0.28;;;25.00;40.60;24.20;101432.00;;;;5109178;27;20044;-66
2022/09/02 03:59:05;;;;;;;0.68;0.30;;;25.00;40.00;24.20;101423.00;;;;5105477;28;20062;-66
2022/09/02 04:01:51;;;;;;;0.47;0.28;;;25.00;40.00;24.20;101423.00;;;;5107173;27;20035;-66
2022/09/02 04:04:37;;;;;;;0.28;0.22;;;25.00;40.00;24.20;101420.00;;;;5087446;28;20036;-66
2022/09/02 04:07:23;;;;;;;0.40;0.30;;;25.00;40.00;24.20;101423.00;;;;5113864;27;20031;-66
2022/09/02 04:10:10;;;;;;;1.58;0.32;;;25.00;40.00;24.20;101418.00;;;;5112098;27;20401;-66
2022/09/02 04:12:56;;;;;;;0.30;0.20;;;25.00;40.00;24.20;101422.00;;;;5129148;27;20069;-66
2022/09/02 04:15:43;;;;;;;0.10;0.10;;;25.00;40.00;24.10;101417.00;;;;5097645;27;20039;-67
2022/09/02 04:18:29;;;;;;;0.32;0.13;;;25.00;40.00;24.10;101419.00;;;;5091326;28;20040;-66
2022/09/02 04:21:15;;;;;;;0.30;0.30;;;25.00;40.00;24.10;101409.00;;;;5110486;27;20401;-66
2022/09/02 04:24:02;;;;;;;0.40;0.30;;;24.90;40.00;24.10;101413.00;;;;5103233;28;20051;-66
2022/09/02 04:26:48;;;;;;;0.70;0.47;;;24.90;40.00;24.10;101408.00;;;;5124806;27;20039;-66
2022/09/02 04:29:34;;;;;;;0.55;0.20;;;25.00;40.10;24.10;101408.00;;;;5099414;27;20027;-66
2022/09/02 04:32:20;;;;;;;0.55;0.30;;;24.90;40.10;24.10;101409.00;;;;5108134;27;20035;-66
2022/09/02 04:35:06;;;;;;;0.57;0.30;;;25.00;40.20;24.10;101408.00;;;;5090182;27;20047;-66
2022/09/02 04:37:52;;;;;;;0.50;0.30;;;24.90;40.20;24.10;101404.00;;;;5113921;27;20043;-66
2022/09/02 04:40:40;;;;;;;2.17;0.38;;;24.90;40.20;24.10;101399.00;;;;5104661;27;20046;-66
2022/09/02 04:43:26;;;;;;;1.08;0.30;;;24.90;40.20;24.10;101405.00;;;;5100940;27;20036;-66
2022/09/02 04:46:13;;;;;;;0.40;0.30;;;24.90;40.20;24.10;101409.00;;;;5095758;27;20043;-66
2022/09/02 04:48:59;;;;;;;0.53;0.20;;;24.90;40.20;24.10;101408.00;;;;5116941;27;20063;-66
2022/09/02 04:51:45;;;;;;;2.22;0.50;;;24.90;40.30;24.10;101408.00;;;;5120689;27;20650;-66
2022/09/02 04:54:31;;;;;;;0.20;0.20;;;24.90;40.20;24.10;101409.00;;;;5103860;27;20039;-66
2022/09/02 04:57:17;;;;;;;0.47;0.30;;;24.90;40.30;24.10;101406.00;;;;5105904;27;21338;-66
2022/09/02 05:00:05;;;;;;;1.40;0.60;;;24.90;40.20;24.10;101406.00;;;;5092891;27;20073;-66
2022/09/02 05:02:52;;;;;;;2.65;0.30;;;24.80;40.20;24.10;101406.00;;;;5099871;28;20036;-66
2022/09/02 05:05:39;;;;;;;0.47;0.22;;;24.80;40.10;24.10;101409.00;;;;5077517;27;20040;-66
2022/09/02 05:08:25;;;;;;;1.50;0.38;;;24.80;40.10;24.00;101410.00;;;;5104710;27;20463;-66
2022/09/02 05:11:17;;;;;;;0.95;0.40;;;24.80;40.00;24.00;101410.00;;;;5108878;27;20034;-66
2022/09/02 05:14:05;;;;;;;1.85;0.30;;;24.80;40.10;24.00;101412.00;;;;5094481;27;20035;-66
2022/09/02 05:16:54;;;;;;;0.60;0.30;;;24.80;40.10;24.00;101407.00;;;;5097616;27;20072;-66
2022/09/02 05:19:40;;;;;;;0.88;0.35;;;24.90;40.30;24.00;101411.00;;;;5084096;27;20440;-66
2022/09/02 05:22:28;;;;;;;2.40;0.40;;;24.80;40.30;24.00;101410.00;;;;5115167;27;20066;-66
2022/09/02 05:25:14;;;;;;;1.80;0.30;;;24.80;40.20;24.00;101406.00;;;;5092451;28;20040;-66
2022/09/02 05:28:00;;;;;;;1.15;0.28;;;24.80;40.20;24.00;101412.00;;;;5093389;28;20035;-66
2022/09/02 05:30:46;;;;;;;2.35;0.50;;;24.80;40.30;24.00;101404.00;;;;5103148;27;20035;-67
2022/09/02 05:33:36;;;;;;;0.35;0.35;;;24.80;40.30;24.00;101406.00;;;;5095995;27;20058;-66
2022/09/02 05:36:22;;;;;;;1.05;0.22;;;24.80;40.40;24.00;101409.00;;;;5084182;27;20074;-66
2022/09/02 05:39:08;;;;;;;0.45;0.30;;;24.80;40.40;24.00;101408.00;;;;5103157;27;20394;-66
2022/09/02 05:41:54;;;;;;;0.52;0.28;;;24.80;40.40;24.00;101408.00;;;;5095014;28;20044;-66
2022/09/02 05:44:43;;;;;;;0.50;0.35;;;24.80;40.40;24.00;101410.00;;;;5097613;28;20518;-66
2022/09/02 05:47:29;;;;;;;1.95;0.32;;;24.80;40.40;24.00;101411.00;;;;5110647;27;20451;-66
2022/09/02 05:50:15;;;;;;;3.50;0.40;;;24.80;40.50;24.00;101403.00;;;;5104555;27;20531;-66
2022/09/02 05:53:02;;;;;;;1.58;0.30;;;24.80;40.50;24.00;101406.00;;;;5108673;27;20118;-66
2022/09/02 05:55:49;;;;;;;0.50;0.40;;;24.70;40.40;24.00;101407.00;;;;5084843;28;20405;-66
2022/09/02 05:58:35;;;;;;;1.88;0.40;;;24.80;40.50;24.00;101406.00;;;;5098467;27;20031;-66
2022/09/02 06:01:21;;;;;;;2.63;0.50;;;24.80;40.50;24.00;101404.00;;;;5097769;27;20034;-66
2022/09/02 06:04:07;;;;;;;0.47;0.25;;;24.80;40.50;24.00;101409.00;;;;5091494;28;20554;-66
2022/09/02 06:06:53;;;;;;;0.60;0.40;;;24.80;40.50;24.00;101405.00;;;;5080368;28;20045;-66
2022/09/02 06:09:39;;;;;;;1.33;0.40;;;24.70;40.40;24.00;101409.00;;;;5102484;27;20039;-66
2022/09/02 06:12:26;;;;;;;1.80;0.47;;;24.80;40.50;24.00;101407.00;;;;5109312;27;20038;-66
2022/09/02 06:15:13;;;;;;;1.25;0.43;;;24.80;40.40;24.00;101405.00;;;;5107428;27;20063;-66
2022/09/02 06:17:59;;;;;;;0.20;0.20;;;24.80;40.30;24.00;101404.00;;;;5110521;27;20133;-66
2022/09/02 06:20:46;;;;;;;0.45;0.30;;;24.80;40.20;24.00;101404.00;;;;5099053;27;20390;-66
2022/09/02 06:23:37;;;;;;;0.88;0.60;;;24.80;40.30;24.00;101401.00;;;;5092835;27;20121;-66
2022/09/02 06:26:23;;;;;;;0.50;0.40;;;24.90;40.40;24.00;101397.00;;;;5093599;27;20105;-66
2022/09/02 06:29:10;;;;;;;1.02;0.50;;;24.80;40.30;24.00;101399.00;;;;5110419;27;20409;-66
2022/09/02 06:31:57;;;;;;;0.68;0.40;;;24.80;40.20;24.00;101395.00;;;;5088349;28;20042;-66
2022/09/02 06:34:43;;;;;;;0.80;0.50;;;24.80;40.30;24.00;101395.00;;;;5090171;28;20072;-66
2022/09/02 06:37:29;;;;;;;0.77;0.40;;;24.80;40.30;24.00;101393.00;;;;5109918;27;20478;-66
2022/09/02 06:40:18;;;;;;;1.45;0.60;;;24.80;40.50;24.00;101393.00;;;;5106617;27;20121;-66
2022/09/02 06:43:04;;;;;;;1.90;0.70;;;24.70;40.30;24.00;101406.00;;;;5108975;27;20400;-66
2022/09/02 06:45:50;;;;;;;1.17;0.40;;;24.80;40.20;24.00;101403.00;;;;5101815;27;20051;-66
2022/09/02 06:48:36;;;;;;;1.42;0.40;;;24.90;40.50;24.10;101395.00;;;;5108629;27;20114;-66
2022/09/02 06:51:31;;;;;;;0.80;0.40;;;24.80;40.40;24.10;101398.00;;;;5087797;28;20476;-66
2022/09/02 06:54:18;;;;;;;1.02;0.50;;;24.90;40.40;24.10;101398.00;;;;5110265;27;20396;-65
2022/09/02 06:57:05;;;;;;;0.60;0.30;;;24.90;40.30;24.10;101393.00;;;;5115173;27;20037;-66
2022/09/02 06:59:51;;;;;;;1.25;0.32;;;24.80;40.30;24.10;101394.00;;;;5104519;27;20036;-66
2022/09/02 07:02:37;;;;;;;0.85;0.50;;;24.90;40.40;24.10;101389.00;;;;5106088;27;20035;-66
2022/09/02 07:05:23;;;;;;;1.13;0.45;;;24.90;40.30;24.10;101388.00;;;;5098130;28;20043;-66
2022/09/02 07:08:09;;;;;;;1.50;0.20;;;24.90;40.30;24.10;101391.00;;;;5109416;28;20028;-66
2022/09/02 07:10:55;;;;;;;2.35;0.60;;;24.90;40.30;24.10;101390.00;;;;5103560;28;20032;-66
2022/09/02 07:13:41;;;;;;;0.90;0.45;;;24.90;40.30;24.10;101391.00;;;;5115349;28;20069;-66
2022/09/02 07:16:36;;;;;;;0.73;0.50;;;24.90;40.30;24.10;101391.00;;;;5105273;28;20060;-66
2022/09/02 07:19:22;;;;;;;0.55;0.55;;;24.90;40.30;24.10;101388.00;;;;5076653;28;20043;-66
2022/09/02 07:22:08;;;;;;;1.23;0.40;;;24.90;40.30;24.10;101392.00;;;;5097325;27;20705;-66
2022/09/02 07:24:55;;;;;;;1.00;0.40;;;24.90;40.30;24.10;101383.00;;;;5092180;28;20438;-66
2022/09/02 07:27:42;;;;;;;3.03;0.43;;;24.90;40.30;24.10;101384.00;;;;5111079;27;20542;-66
2022/09/02 07:30:30;;;;;;;0.57;0.30;;;25.00;40.40;24.10;101381.00;;;;5106326;27;20070;-66
2022/09/02 07:33:16;;;;;;;1.77;0.40;;;25.00;40.20;24.10;101380.00;;;;5116517;27;20070;-66
2022/09/02 07:36:06;;;;;;;1.40;0.40;;;25.00;40.20;24.10;101374.00;;;;5111963;27;20485;-66
2022/09/02 07:38:53;;;;;;;1.83;0.65;;;25.00;40.30;24.10;101374.00;;;;5108225;28;20043;-66
2022/09/02 07:41:39;;;;;;;1.08;0.50;;;24.90;40.20;24.10;101375.00;;;;5092845;28;20039;-66
2022/09/02 07:44:25;;;;;;;0.90;0.43;;;25.00;40.30;24.10;101375.00;;;;5087389;28;20404;-66
2022/09/02 07:47:11;;;;;;;2.13;0.50;;;25.00;40.30;24.10;101383.00;;;;5111490;27;20065;-66
2022/09/02 07:49:57;;;;;;;0.52;0.38;;;25.00;40.20;24.10;101382.00;;;;5098533;27;20636;-65
2022/09/02 07:52:43;;;;;;;3.85;0.50;;;25.00;40.20;24.20;101368.00;;;;5109287;27;20040;-66
2022/09/02 07:55:29;;;;;;;0.75;0.55;;;25.00;40.20;24.10;101371.00;;;;5106837;28;20043;-66
2022/09/02 07:58:16;;;;;;;2.60;0.70;;;25.00;40.30;24.20;101367.00;;;;5110776;27;20035;-66
2022/09/02 08:01:02;;;;;;;0.80;0.50;;;25.00;40.20;24.20;101365.00;;;;5097999;27;20081;-66
2022/09/02 08:03:49;;;;;;;0.85;0.35;;;25.00;40.20;24.20;101363.00;;;;5105029;27;20031;-66
2022/09/02 08:06:36;;;;;;;1.80;0.43;;;25.10;40.20;24.20;101367.00;;;;5070637;28;20439;-66
2022/09/02 08:09:22;;;;;;;0.98;0.40;;;25.00;40.10;24.20;101367.00;;;;5100689;28;20074;-66
2022/09/02 08:12:08;;;;;;;1.65;0.47;;;25.10;40.20;24.20;101368.00;;;;5103362;27;20292;-66
2022/09/02 08:14:56;;;;;;;1.27;0.50;;;25.10;40.20;24.20;101363.00;;;;5105861;27;20032;-66
2022/09/02 08:17:43;;;;;;;0.85;0.47;;;25.10;40.10;24.20;101363.00;;;;5104702;28;20477;-66
2022/09/02 08:20:32;;;;;;;1.10;0.45;;;25.00;40.00;24.20;101361.00;;;;5104526;28;20118;-66
2022/09/02 08:23:18;;;;;;;2.50;0.70;;;25.10;40.10;24.20;101362.00;;;;5123751;27;20558;-66
2022/09/02 08:26:05;;;;;;;0.88;0.45;;;25.00;40.00;24.20;101355.00;;;;5094414;27;20043;-66
2022/09/02 08:28:51;;;;;;;1.40;0.60;;;25.10;40.10;24.20;101357.00;;;;5091334;28;20036;-66
2022/09/02 08:31:37;;;;;;;0.90;0.60;;;25.10;40.00;24.20;101357.00;;;;5098453;28;20186;-66
2022/09/02 08:34:23;;;;;;;0.57;0.50;;;25.10;40.10;24.20;101359.00;;;;5096927;27;20670;-66
2022/09/02 08:37:09;;;;;;;0.98;0.45;;;25.10;40.10;24.20;101351.00;;;;5110552;28;20047;-66
2022/09/02 08:39:55;;;;;;;3.22;0.55;;;25.10;40.00;24.20;101348.00;;;;5102372;28;20039;-66
2022/09/02 08:42:50;;;;;;;1.98;0.60;;;25.00;40.00;24.20;101333.00;;;;5112178;27;20035;-66
2022/09/02 08:45:36;;;;;;;1.35;0.43;;;25.10;40.10;24.20;101330.00;;;;5088087;28;20043;-66
2022/09/02 08:48:44;;;;;;;1.15;0.50;;;25.10;40.10;24.20;101342.00;;;;5084254;27;20039;-66
2022/09/02 08:51:47;;;;;;;0.52;0.40;;;25.10;40.00;24.20;101342.00;;;;5086745;28;20412;-66
2022/09/02 08:55:05;;;;;;;1.90;0.60;;;25.10;40.20;24.20;101337.00;;;;5091067;28;20130;-66
2022/09/02 08:57:55;;;;;;;0.60;0.50;;;25.10;40.10;24.20;101339.00;;;;5076586;28;20114;-66
2022/09/02 09:00:41;;;;;;;1.08;0.40;;;25.10;40.10;24.20;101340.00;;;;5096543;27;20031;-66
2022/09/02 09:03:42;;;;;;;0.80;0.30;;;25.10;40.20;24.20;101330.00;;;;5084599;28;20039;-66
2022/09/02 09:06:52;;;;;;;0.57;0.38;;;25.10;40.10;24.20;101337.00;;;;5096577;28;20281;-66
2022/09/02 09:10:10;;;;;;;1.27;0.40;;;25.10;40.10;24.20;101330.00;;;;5091180;28;20040;-66
2022/09/02 09:13:13;;;;;;;0.68;0.50;;;25.10;40.10;24.20;101325.00;;;;5091674;28;20550;-66
2022/09/02 09:16:27;;;;;;;1.75;0.50;;;25.10;40.10;24.20;101333.00;;;;5092268;27;20038;-66
2022/09/02 09:19:15;;;;;;;1.50;0.40;;;25.10;40.30;24.20;101330.00;;;;5087643;27;20117;-66
2022/09/02 09:22:02;;;;;;;1.52;0.43;;;25.10;40.20;24.20;101329.00;;;;5091374;28;20488;-66
2022/09/02 09:24:49;;;;;;;0.77;0.40;;;25.10;40.20;24.20;101321.00;;;;5088940;28;20080;-66
2022/09/02 09:27:35;;;;;;;1.58;0.60;;;25.10;40.30;24.20;101320.00;;;;5100126;27;20031;-66
2022/09/02 09:30:21;;;;;;;1.08;0.40;;;25.10;40.30;24.20;101311.00;;;;5110204;27;20518;-66
2022/09/02 09:33:07;;;;;;;1.23;0.38;;;25.10;40.30;24.20;101310.00;;;;5093029;28;20104;-66
2022/09/02 09:35:53;;;;;;;1.08;0.47;;;25.10;40.30;24.20;101308.00;;;;5087693;28;20523;-66
2022/09/02 09:38:39;;;;;;;1.20;0.85;;;25.00;40.20;24.20;101312.00;;;;5092126;28;20469;-66
2022/09/02 09:41:27;;;;;;;1.20;0.60;;;25.10;40.30;24.20;101306.00;;;;5096882;28;20039;-66
2022/09/02 09:44:43;;;;;;;0.65;0.45;;;25.10;40.30;24.20;101298.00;;;;5095020;27;20552;-66
2022/09/02 09:47:29;;;;;;;2.40;0.50;;;25.10;40.20;24.20;101314.00;;;;5117700;27;20036;-66
2022/09/02 09:50:16;;;;;;;1.63;0.50;;;25.10;40.20;24.20;101299.00;;;;5106227;27;20039;-66
2022/09/02 09:53:25;;;;;;;0.88;0.43;;;25.10;40.20;24.20;101305.00;;;;5121376;27;20070;-66
2022/09/02 09:56:14;;;;;;;1.38;0.50;;;25.10;40.20;24.20;101297.00;;;;5091544;27;20046;-66
2022/09/02 09:59:00;;;;;;;1.58;0.52;;;25.10;40.10;24.20;101292.00;;;;5106273;27;20472;-66
2022/09/02 10:01:50;;;;;;;1.17;0.70;;;25.10;40.10;24.20;101291.00;;;;5076747;28;20054;-66
2022/09/02 10:04:36;;;;;;;2.30;0.52;;;25.10;40.20;24.20;101295.00;;;;5087865;27;20035;-66
2022/09/02 10:07:41;;;;;;;0.57;0.45;;;25.10;40.20;24.20;101293.00;;;;5080197;27;20048;-66
2022/09/02 10:10:29;;;;;;;0.68;0.55;;;25.10;40.20;24.20;101290.00;;;;5100333;28;20037;-66
2022/09/02 10:13:22;;;;;;;1.63;0.55;;;25.20;40.30;24.20;101284.00;;;;5088508;28;20067;-66
2022/09/02 10:16:20;;;;;;;2.20;0.70;;;25.10;40.20;24.20;101279.00;;;;5084009;28;20311;-66
2022/09/02 10:19:22;;;;;;;1.73;0.80;;;25.20;40.30;24.20;101282.00;;;;5102087;27;20409;-66
2022/09/02 10:22:20;;;;;;;5.45;0.60;;;25.10;40.20;24.20;101278.00;;;;5088684;27;20382;-66
2022/09/02 10:25:37;;;;;;;2.70;0.52;;;25.20;40.20;24.20;101266.00;;;;5102032;27;20046;-66
2022/09/02 10:29:08;;;;;;;1.30;0.68;;;25.10;40.20;24.20;101271.00;;;;5087655;28;20050;-66
2022/09/02 10:32:12;;;;;;;1.45;0.65;;;25.10;40.20;24.20;101276.00;;;;5087523;28;20044;-66
2022/09/02 10:35:42;;;;;;;1.88;0.65;;;25.10;40.20;24.20;101270.00;;;;5106112;27;20035;-66
2022/09/02 10:38:32;;;;;;;1.58;0.50;;;25.10;40.20;24.20;101267.00;;;;5003853;28;20047;-66
2022/09/02 10:41:30;;;;;;;1.85;0.55;;;25.20;40.40;24.20;101271.00;;;;5069414;28;20430;-66
2022/09/02 10:44:26;;;;;;;1.85;0.57;;;25.20;40.40;24.20;101269.00;;;;5103505;27;20419;-66
2022/09/02 10:47:27;;;;;;;1.15;0.80;;;25.20;40.20;24.20;101255.00;;;;5109782;27;20047;-66
2022/09/02 10:50:32;;;;;;;1.05;0.47;;;25.20;40.30;24.20;101252.00;;;;5081782;27;20118;-66
2022/09/02 10:53:39;;;;;;;1.50;0.80;;;25.20;40.30;24.30;101260.00;;;;5092730;27;20051;-66
2022/09/02 10:56:30;;;;;;;0.65;0.60;;;25.20;40.20;24.20;101260.00;;;;5091952;28;20039;-66
2022/09/02 10:59:43;;;;;;;0.73;0.60;;;25.20;40.10;24.30;101259.00;;;;5078145;28;20108;-66
2022/09/02 11:03:06;;;;;;;1.48;0.60;;;25.20;40.30;24.30;101255.00;;;;5110328;27;20047;-66
2022/09/02 11:05:56;;;;;;;0.85;0.50;;;25.20;40.20;24.30;101250.00;;;;5076922;28;20109;-66
2022/09/02 11:08:54;;;;;;;1.70;0.60;;;25.20;40.20;24.30;101253.00;;;;5074172;28;20040;-66
2022/09/02 11:11:54;;;;;;;0.63;0.52;;;25.20;40.10;24.30;101248.00;;;;5084321;28;20469;-66
2022/09/02 11:15:03;;;;;;;0.80;0.63;;;25.20;40.30;24.30;101238.00;;;;5083399;28;20086;-66
2022/09/02 11:18:07;;;;;;;2.08;0.90;;;25.20;40.20;24.30;101240.00;;;;5093632;28;20039;-66
2022/09/02 11:21:19;;;;;;;0.88;0.65;;;25.20;40.20;24.30;101248.00;;;;5099857;28;20578;-66
2022/09/02 11:24:27;;;;;;;2.50;0.50;;;25.30;40.10;24.30;101238.00;;;;5111530;28;20164;-66
2022/09/02 11:27:29;;;;;;;1.02;0.77;;;25.30;40.20;24.30;101232.00;;;;5089801;28;20142;-66
2022/09/02 11:30:20;;;;;;;0.90;0.50;;;25.20;40.00;24.30;101229.00;;;;5094954;28;20043;-66
2022/09/02 11:33:25;;;;;;;0.60;0.60;;;25.30;40.30;24.30;101217.00;;;;5088489;28;21352;-66
2022/09/02 11:36:11;;;;;;;3.78;0.70;;;25.30;40.10;24.30;101232.00;;;;5081803;28;20539;-66
2022/09/02 11:39:07;;;;;;;1.50;0.68;;;25.30;40.10;24.30;101226.00;;;;5110332;28;20051;-66
2022/09/02 11:42:37;;;;;;;0.77;0.43;;;25.30;40.10;24.30;101226.00;;;;5100073;28;20064;-66
2022/09/02 11:45:33;;;;;;;0.57;0.50;;;25.30;40.20;24.30;101223.00;;;;5103683;28;20324;-66
2022/09/02 11:48:28;;;;;;;0.63;0.50;;;25.30;40.20;24.30;101213.00;;;;5082668;28;20426;-66
2022/09/02 11:51:38;;;;;;;1.92;0.57;;;25.30;40.20;24.30;101215.00;;;;5075420;28;20044;-65
2022/09/02 11:54:26;;;;;;;0.50;0.50;;;25.20;40.10;24.30;101212.00;;;;5079269;28;20074;-65
2022/09/02 11:57:15;;;;;;;0.93;0.63;;;25.30;40.20;24.30;101209.00;;;;5094910;28;20105;-65
2022/09/02 12:00:05;;;;;;;1.33;0.65;;;25.40;40.20;24.30;101212.00;;;;5080983;28;20044;-65
2022/09/02 12:03:13;;;;;;;1.00;0.68;;;25.40;40.20;24.30;101202.00;;;;5069830;28;20040;-70
2022/09/02 12:06:18;;;;;;;1.02;0.70;;;25.40;40.20;24.30;101199.00;;;;5086451;28;20043;-65
2022/09/02 12:09:07;;;;;;;0.65;0.60;;;25.30;40.10;24.30;101198.00;;;;5077257;28;20912;-65
2022/09/02 12:11:53;;;;;;;0.85;0.50;;;25.30;40.10;24.30;101201.00;;;;5084192;28;20402;-65
2022/09/02 12:14:46;;;;;;;0.87;0.53;;;25.40;40.30;24.30;101191.00;;;;5074948;28;20039;-65
2022/09/02 12:17:52;;;;;;;0.60;0.50;;;25.30;40.20;24.30;101195.00;;;;5104221;27;20289;-65
2022/09/02 12:20:40;;;;;;;1.75;0.70;;;25.30;40.30;24.30;101185.00;;;;5075362;27;20035;-65
2022/09/02 12:23:47;;;;;;;0.93;0.50;;;25.40;40.30;24.30;101175.00;;;;5111741;27;20039;-65
2022/09/02 12:26:39;;;;;;;1.13;0.82;;;25.30;40.20;24.30;101178.00;;;;5108512;27;20433;-65
2022/09/02 12:29:25;;;;;;;0.47;0.47;;;25.40;40.30;24.40;101171.00;;;;5109125;27;20040;-65